Time,TemperatureF,DewpointF,PressureIn,WindDirection,WindDirectionDegrees,WindSpeedMPH,WindSpeedGustMPH,Humidity,HourlyPrecipIn,Conditions,Clouds,dailyrainin,SoftwareType,DateUTC
2013-10-01 00:11:00,58.9,32.0,29.85,SSW,192,0.0,-999.0,37,-99.99,,,0.00,weatherlink.com 1.10,2013-10-01 07:11:00,
2013-10-01 00:26:00,57.8,34.0,29.84,SSW,192,0.0,-999.0,41,-99.99,,,0.00,weatherlink.com 1.10,2013-10-01 07:26:00,
2013-10-01 00:41:00,57.2,36.0,29.84,SSW,192,0.0,-999.0,45,-99.99,,,0.00,weatherlink.com 1.10,2013-10-01 07:41:00,
2013-10-01 00:56:00,57.0,34.0,29.84,SSW,192,0.0,-999.0,42,-99.99,,,0.00,weatherlink.com 1.10,2013-10-01 07:56:00,
2013-10-01 01:11:00,56.3,33.0,29.84,SSW,192,0.0,-999.0,42,-99.99,,,0.00,weatherlink.com 1.10,2013-10-01 08:11:00,
2013-10-01 01:26:00,55.9,34.0,29.84,SSW,192,0.0,-999.0,44,-99.99,,,0.00,weatherlink.com 1.10,2013-10-01 08:26:00,
2013-10-01 01:41:00,55.6,34.0,29.84,SSW,192,0.0,-999.0,45,-99.99,,,0.00,weatherlink.com 1.10,2013-10-01 08:41:00,
2013-10-01 01:56:00,56.2,37.0,29.84,South,190,0.0,-999.0,48,-99.99,,,0.00,weatherlink.com 1.10,2013-10-01 08:56:00,
2013-10-01 02:27:00,55.7,36.0,29.85,South,191,0.0,-999.0,47,-99.99,,,0.00,weatherlink.com 1.10,2013-10-01 09:27:00,
2013-10-01 02:42:00,55.3,32.0,29.85,SSW,198,0.0,-999.0,42,-99.99,,,0.00,weatherlink.com 1.10,2013-10-01 09:42:00,
2013-10-01 02:57:00,54.5,33.0,29.85,SSW,209,0.0,-999.0,45,-99.99,,,0.00,weatherlink.com 1.10,2013-10-01 09:57:00,
2013-10-01 03:12:00,54.5,32.0,29.84,SSW,209,0.0,-999.0,42,-99.99,,,0.00,weatherlink.com 1.10,2013-10-01 10:12:00,
2013-10-01 03:27:00,54.4,33.0,29.84,SSW,209,0.0,-999.0,44,-99.99,,,0.00,weatherlink.com 1.10,2013-10-01 10:27:00,
2013-10-01 03:42:00,54.1,32.0,29.84,SSW,212,0.0,-999.0,44,-99.99,,,0.00,weatherlink.com 1.10,2013-10-01 10:42:00,
2013-10-01 03:57:00,53.6,30.0,29.85,SSW,212,0.0,-999.0,40,-99.99,,,0.00,weatherlink.com 1.10,2013-10-01 10:57:00,
2013-10-01 04:12:00,53.3,31.0,29.85,SSW,212,0.0,-999.0,42,-99.99,,,0.00,weatherlink.com 1.10,2013-10-01 11:12:00,
2013-10-01 04:27:00,53.3,32.0,29.86,SSW,212,0.0,-999.0,44,-99.99,,,0.00,weatherlink.com 1.10,2013-10-01 11:27:00,
2013-10-01 04:42:00,53.2,32.0,29.86,SSW,212,0.0,-999.0,45,-99.99,,,0.00,weatherlink.com 1.10,2013-10-01 11:42:00,
2013-10-01 04:58:00,53.2,34.0,29.85,SSW,212,0.0,-999.0,48,-99.99,,,0.00,weatherlink.com 1.10,2013-10-01 11:58:00,
2013-10-01 05:13:00,52.8,31.0,29.86,SSW,212,0.0,-999.0,44,-99.99,,,0.00,weatherlink.com 1.10,2013-10-01 12:13:00,
2013-10-01 05:28:00,52.6,32.0,29.86,SSW,212,0.0,-999.0,46,-99.99,,,0.00,weatherlink.com 1.10,2013-10-01 12:28:00,
2013-10-01 05:43:00,52.9,32.0,29.86,SSW,212,0.0,-999.0,46,-99.99,,,0.00,weatherlink.com 1.10,2013-10-01 12:43:00,
2013-10-01 05:58:00,53.1,34.0,29.86,WSW,253,0.0,-999.0,48,-99.99,,,0.00,weatherlink.com 1.10,2013-10-01 12:58:00,
2013-10-01 06:13:00,53.2,35.0,29.86,WSW,253,0.0,-999.0,50,-99.99,,,0.00,weatherlink.com 1.10,2013-10-01 13:13:00,
2013-10-01 06:28:00,54.5,39.0,29.88,WSW,253,0.0,-999.0,56,-99.99,,,0.00,weatherlink.com 1.10,2013-10-01 13:28:00,
2013-10-01 06:43:00,55.3,38.0,29.88,WSW,253,0.0,-999.0,53,-99.99,,,0.00,weatherlink.com 1.10,2013-10-01 13:43:00,
2013-10-01 06:58:00,54.8,36.0,29.88,WSW,254,0.0,-999.0,50,-99.99,,,0.00,weatherlink.com 1.10,2013-10-01 13:58:00,
2013-10-01 07:13:00,54.2,36.0,29.89,WSW,254,0.0,-999.0,51,-99.99,,,0.00,weatherlink.com 1.10,2013-10-01 14:13:00,
2013-10-01 07:28:00,54.5,37.0,29.90,WSW,254,0.0,-999.0,53,-99.99,,,0.00,weatherlink.com 1.10,2013-10-01 14:28:00,
2013-10-01 07:43:00,55.7,38.0,29.90,WSW,254,0.0,-999.0,51,-99.99,,,0.00,weatherlink.com 1.10,2013-10-01 14:43:00,
2013-10-01 07:58:00,57.6,37.0,29.90,WSW,254,0.0,-999.0,46,-99.99,,,0.00,weatherlink.com 1.10,2013-10-01 14:58:00,
2013-10-01 08:14:00,59.9,39.0,29.89,WSW,254,0.0,-999.0,46,-99.99,,,0.00,weatherlink.com 1.10,2013-10-01 15:14:00,
2013-10-01 08:29:00,63.2,44.0,29.90,SW,235,5.0,-999.0,50,-99.99,,,0.00,weatherlink.com 1.10,2013-10-01 15:29:00,
2013-10-01 08:44:00,65.5,45.0,29.89,WSW,248,2.0,-999.0,48,-99.99,,,0.00,weatherlink.com 1.10,2013-10-01 15:44:00,
2013-10-01 08:59:00,67.3,45.0,29.89,WSW,250,0.0,-999.0,44,-99.99,,,0.00,weatherlink.com 1.10,2013-10-01 15:59:00,
2013-10-01 09:14:00,69.8,44.0,29.88,WSW,250,4.0,-999.0,39,-99.99,,,0.00,weatherlink.com 1.10,2013-10-01 16:14:00,
2013-10-01 09:29:00,72.1,42.0,29.88,WSW,250,0.0,-999.0,34,-99.99,,,0.00,weatherlink.com 1.10,2013-10-01 16:29:00,
2013-10-01 09:44:00,74.4,41.0,29.87,SW,236,4.0,-999.0,30,-99.99,,,0.00,weatherlink.com 1.10,2013-10-01 16:44:00,
2013-10-01 09:59:00,75.6,41.0,29.87,SW,236,1.0,-999.0,29,-99.99,,,0.00,weatherlink.com 1.10,2013-10-01 16:59:00,
2013-10-01 10:15:00,77.2,41.0,29.86,WSW,245,1.0,-999.0,27,-99.99,,,0.00,weatherlink.com 1.10,2013-10-01 17:15:00,
2013-10-01 10:30:00,79.4,40.0,29.86,WSW,255,6.0,-999.0,24,-99.99,,,0.00,weatherlink.com 1.10,2013-10-01 17:30:00,
2013-10-01 10:45:00,80.5,40.0,29.86,WSW,242,7.0,-999.0,24,-99.99,,,0.00,weatherlink.com 1.10,2013-10-01 17:45:00,
2013-10-01 11:00:00,81.4,40.0,29.85,WSW,249,0.0,-999.0,23,-99.99,,,0.00,weatherlink.com 1.10,2013-10-01 18:00:00,
2013-10-01 11:15:00,81.6,40.0,29.85,West,263,7.0,-999.0,23,-99.99,,,0.00,weatherlink.com 1.10,2013-10-01 18:15:00,
2013-10-01 11:30:00,83.6,40.0,29.85,WNW,285,13.0,-999.0,21,-99.99,,,0.00,weatherlink.com 1.10,2013-10-01 18:30:00,
2013-10-01 11:45:00,84.7,39.0,29.84,SW,231,9.0,-999.0,20,-99.99,,,0.00,weatherlink.com 1.10,2013-10-01 18:45:00,
2013-10-01 12:00:00,86.1,41.0,29.84,WSW,245,10.0,-999.0,20,-99.99,,,0.00,weatherlink.com 1.10,2013-10-01 19:00:00,
2013-10-01 12:15:00,87.0,39.0,29.83,SSW,210,5.0,-999.0,18,-99.99,,,0.00,weatherlink.com 1.10,2013-10-01 19:15:00,
2013-10-01 12:30:00,88.0,38.0,29.82,SW,236,4.0,-999.0,17,-99.99,,,0.00,weatherlink.com 1.10,2013-10-01 19:30:00,
2013-10-01 12:46:00,87.8,39.0,29.82,South,184,11.0,-999.0,18,-99.99,,,0.00,weatherlink.com 1.10,2013-10-01 19:46:00,
2013-10-01 13:01:00,87.0,41.0,29.80,SSE,165,20.0,-999.0,20,-99.99,,,0.00,weatherlink.com 1.10,2013-10-01 20:01:00,
2013-10-01 13:16:00,87.0,41.0,29.80,SW,234,15.0,-999.0,20,-99.99,,,0.00,weatherlink.com 1.10,2013-10-01 20:16:00,
2013-10-01 13:31:00,88.8,40.0,29.79,SW,230,18.0,-999.0,18,-99.99,,,0.00,weatherlink.com 1.10,2013-10-01 20:31:00,
2013-10-01 13:46:00,89.5,39.0,29.79,SW,220,11.0,-999.0,17,-99.99,,,0.00,weatherlink.com 1.10,2013-10-01 20:46:00,
2013-10-01 14:01:00,89.0,37.0,29.79,SSW,194,11.0,-999.0,16,-99.99,,,0.00,weatherlink.com 1.10,2013-10-01 21:01:00,
2013-10-01 14:16:00,89.0,37.0,29.79,South,178,7.0,-999.0,16,-99.99,,,0.00,weatherlink.com 1.10,2013-10-01 21:16:00,
2013-10-01 14:31:00,89.0,37.0,29.79,SW,227,11.0,-999.0,16,-99.99,,,0.00,weatherlink.com 1.10,2013-10-01 21:31:00,
2013-10-01 14:46:00,88.0,38.0,29.79,SW,227,14.0,-999.0,17,-99.99,,,0.00,weatherlink.com 1.10,2013-10-01 21:46:00,
2013-10-01 15:01:00,88.4,37.0,29.79,SSW,198,11.0,-999.0,16,-99.99,,,0.00,weatherlink.com 1.10,2013-10-01 22:01:00,
2013-10-01 15:16:00,87.6,35.0,29.79,SSW,198,13.0,-999.0,15,-99.99,,,0.00,weatherlink.com 1.10,2013-10-01 22:16:00,
2013-10-01 15:31:00,87.0,36.0,29.79,SW,219,16.0,-999.0,16,-99.99,,,0.00,weatherlink.com 1.10,2013-10-01 22:31:00,
2013-10-01 15:47:00,86.7,35.0,29.79,WSW,241,15.0,-999.0,16,-99.99,,,0.00,weatherlink.com 1.10,2013-10-01 22:47:00,
2013-10-01 16:02:00,87.6,35.0,29.79,SW,227,12.0,-999.0,15,-99.99,,,0.00,weatherlink.com 1.10,2013-10-01 23:02:00,
2013-10-01 16:17:00,87.2,36.0,29.80,West,263,14.0,-999.0,16,-99.99,,,0.00,weatherlink.com 1.10,2013-10-01 23:17:00,
2013-10-01 16:32:00,86.5,35.0,29.80,SW,216,13.0,-999.0,16,-99.99,,,0.00,weatherlink.com 1.10,2013-10-01 23:32:00,
2013-10-01 16:47:00,85.7,35.0,29.80,SW,227,19.0,-999.0,16,-99.99,,,0.00,weatherlink.com 1.10,2013-10-01 23:47:00,
2013-10-01 17:02:00,84.0,39.0,29.81,SSW,208,15.0,-999.0,20,-99.99,,,0.00,weatherlink.com 1.10,2013-10-02 00:02:00,
2013-10-01 17:17:00,82.6,39.0,29.81,WSW,240,10.0,-999.0,21,-99.99,,,0.00,weatherlink.com 1.10,2013-10-02 00:17:00,
2013-10-01 17:32:00,81.4,40.0,29.82,SSW,207,13.0,-999.0,23,-99.99,,,0.00,weatherlink.com 1.10,2013-10-02 00:32:00,
2013-10-01 17:47:00,80.3,40.0,29.82,SSW,200,17.0,-999.0,24,-99.99,,,0.00,weatherlink.com 1.10,2013-10-02 00:47:00,
2013-10-01 18:02:00,79.2,41.0,29.83,SSW,196,9.0,-999.0,26,-99.99,,,0.00,weatherlink.com 1.10,2013-10-02 01:02:00,
2013-10-01 18:17:00,77.7,42.0,29.83,SW,215,10.0,-999.0,28,-99.99,,,0.00,weatherlink.com 1.10,2013-10-02 01:17:00,
2013-10-01 18:32:00,76.3,40.0,29.83,SSW,213,10.0,-999.0,27,-99.99,,,0.00,weatherlink.com 1.10,2013-10-02 01:32:00,
2013-10-01 18:47:00,75.1,39.0,29.84,SW,234,12.0,-999.0,27,-99.99,,,0.00,weatherlink.com 1.10,2013-10-02 01:47:00,
2013-10-01 19:03:00,73.7,39.0,29.85,WSW,246,9.0,-999.0,28,-99.99,,,0.00,weatherlink.com 1.10,2013-10-02 02:03:00,
2013-10-01 19:18:00,72.3,39.0,29.85,SSW,192,9.0,-999.0,30,-99.99,,,0.00,weatherlink.com 1.10,2013-10-02 02:18:00,
2013-10-01 19:33:00,71.3,41.0,29.86,WSW,258,14.0,-999.0,33,-99.99,,,0.00,weatherlink.com 1.10,2013-10-02 02:33:00,
2013-10-01 19:48:00,69.9,46.0,29.86,SSW,211,3.0,-999.0,42,-99.99,,,0.00,weatherlink.com 1.10,2013-10-02 02:48:00,
2013-10-01 20:03:00,69.1,48.0,29.86,SSW,206,6.0,-999.0,47,-99.99,,,0.00,weatherlink.com 1.10,2013-10-02 03:03:00,
2013-10-01 20:18:00,68.6,48.0,29.85,SW,236,10.0,-999.0,48,-99.99,,,0.00,weatherlink.com 1.10,2013-10-02 03:18:00,
2013-10-01 20:33:00,68.4,48.0,29.85,West,263,10.0,-999.0,48,-99.99,,,0.00,weatherlink.com 1.10,2013-10-02 03:33:00,
2013-10-01 20:48:00,67.9,48.0,29.86,WSW,254,7.0,-999.0,50,-99.99,,,0.00,weatherlink.com 1.10,2013-10-02 03:48:00,
2013-10-01 21:03:00,67.4,48.0,29.86,West,259,10.0,-999.0,50,-99.99,,,0.00,weatherlink.com 1.10,2013-10-02 04:03:00,
2013-10-01 21:18:00,66.9,49.0,29.85,WSW,250,11.0,-999.0,53,-99.99,,,0.00,weatherlink.com 1.10,2013-10-02 04:18:00,
2013-10-01 21:33:00,66.8,49.0,29.85,WSW,241,12.0,-999.0,53,-99.99,,,0.00,weatherlink.com 1.10,2013-10-02 04:33:00,
2013-10-01 21:48:00,66.6,49.0,29.85,WSW,242,10.0,-999.0,53,-99.99,,,0.00,weatherlink.com 1.10,2013-10-02 04:48:00,
2013-10-01 22:03:00,66.3,48.0,29.85,WSW,246,13.0,-999.0,53,-99.99,,,0.00,weatherlink.com 1.10,2013-10-02 05:03:00,
2013-10-01 22:19:00,65.8,49.0,29.83,SW,219,9.0,-999.0,54,-99.99,,,0.00,weatherlink.com 1.10,2013-10-02 05:19:00,
2013-10-01 22:34:00,65.6,48.0,29.83,SSW,202,6.0,-999.0,54,-99.99,,,0.00,weatherlink.com 1.10,2013-10-02 05:34:00,
2013-10-01 22:49:00,65.3,49.0,29.83,SW,225,6.0,-999.0,55,-99.99,,,0.00,weatherlink.com 1.10,2013-10-02 05:49:00,
2013-10-01 23:04:00,65.2,49.0,29.84,SW,221,7.0,-999.0,56,-99.99,,,0.00,weatherlink.com 1.10,2013-10-02 06:04:00,
2013-10-01 23:19:00,65.0,49.0,29.82,SW,225,6.0,-999.0,57,-99.99,,,0.00,weatherlink.com 1.10,2013-10-02 06:19:00,
2013-10-01 23:34:00,65.0,49.0,29.82,SW,230,5.0,-999.0,57,-99.99,,,0.00,weatherlink.com 1.10,2013-10-02 06:34:00,
2013-10-01 23:49:00,65.0,49.0,29.82,SSW,207,9.0,-999.0,56,-99.99,,,0.00,weatherlink.com 1.10,2013-10-02 06:49:00,